Alma, Wisconsin
Current Conditions -  °F | °C
As of 5:54 PM on Friday 28 Nov 2014 (Local Time) from KONA Reporting Station
Broken Clouds Broken Clouds  
Wind Chill: 28°   Ceiling: 11000
Heat Index: 28°   Visibility: 10mi
Dew Point: 23°   Wind: 3mph
Humidity: 80%   Direction: 140°SE
Pressure: 29.88"   Gusts: NA
Location:  44.32°N, 91.91°W
Report Text: KONA 282354Z AUTO 14003KT 10SM SCT070 SCT080 BKN110 M02/M05 A2988 RMK AO2
Loading
Personal Weather Stations






























Interactive Weather Map New forecast layout! Learn more

10-Day Weather Forecast

Advertisements
Track Severe Weather on mobile